createdAt,value
2022-11-29T00:01:30.475Z,97.49
2022-11-29T00:05:42.107Z,97.62
2022-11-29T00:09:53.639Z,97.31
2022-11-29T00:14:06.791Z,97.50
2022-11-29T00:18:18.329Z,97.45
2022-11-29T00:22:30.146Z,97.44
2022-11-29T00:26:41.736Z,97.36
2022-11-29T00:30:53.360Z,97.29
2022-11-29T00:35:09.647Z,97.25
2022-11-29T00:39:21.640Z,97.56
2022-11-29T00:43:33.726Z,97.66
2022-11-29T00:47:45.249Z,97.50
2022-11-29T00:51:56.776Z,97.22
2022-11-29T00:56:08.641Z,97.20
2022-11-29T01:00:20.501Z,97.27
2022-11-29T01:04:32.115Z,97.47
2022-11-29T01:08:45.655Z,97.47
2022-11-29T01:12:57.257Z,97.28
2022-11-29T01:17:08.825Z,97.52
2022-11-29T01:21:22.816Z,97.46
2022-11-29T01:25:34.348Z,97.48
2022-11-29T01:29:45.927Z,97.21
2022-11-29T01:34:00.146Z,97.69
2022-11-29T01:38:11.680Z,97.72
2022-11-29T01:42:23.425Z,97.67
2022-11-29T01:46:38.399Z,97.61
2022-11-29T01:50:50.835Z,97.53
2022-11-29T01:55:05.435Z,97.35
2022-11-29T01:59:21.893Z,97.34
2022-11-29T02:03:33.537Z,97.48
2022-11-29T02:07:50.001Z,97.35
2022-11-29T02:12:19.852Z,97.36
2022-11-29T02:16:40.861Z,97.55
2022-11-29T02:21:47.210Z,97.29
2022-11-29T02:26:35.612Z,97.33
2022-11-29T02:31:05.322Z,97.35
2022-11-29T02:35:29.129Z,97.40
2022-11-29T02:40:06.970Z,97.45
2022-11-29T02:44:21.377Z,97.31
2022-11-29T02:48:46.308Z,97.45
2022-11-29T02:53:22.838Z,97.35
2022-11-29T02:57:58.488Z,97.49
2022-11-29T03:02:40.370Z,97.41
2022-11-29T03:07:25.455Z,97.28
2022-11-29T03:12:06.928Z,97.37
2022-11-29T03:16:44.772Z,97.26
2022-11-29T03:21:05.402Z,97.30
2022-11-29T03:25:32.889Z,97.33
2022-11-29T03:29:55.618Z,96.99
2022-11-29T03:34:44.095Z,97.19
2022-11-29T03:39:00.875Z,97.18
2022-11-29T03:43:26.793Z,97.20
2022-11-29T03:47:57.967Z,97.24
2022-11-29T03:52:26.695Z,97.33
2022-11-29T03:56:40.537Z,97.00
2022-11-29T04:01:13.845Z,97.41
2022-11-29T04:05:41.020Z,97.38
2022-11-29T04:10:25.514Z,97.45
2022-11-29T04:15:23.468Z,97.46
2022-11-29T04:19:53.967Z,97.27
2022-11-29T04:24:34.872Z,97.30
2022-11-29T04:28:49.408Z,97.20
2022-11-29T04:33:21.434Z,97.15
2022-11-29T04:37:57.818Z,97.33
2022-11-29T04:42:18.678Z,97.38
2022-11-29T04:46:56.461Z,97.41
2022-11-29T04:51:29.851Z,97.19
2022-11-29T04:56:11.192Z,97.32
2022-11-29T05:00:24.321Z,97.27
2022-11-29T05:04:53.268Z,97.10
2022-11-29T05:09:17.355Z,97.15
2022-11-29T05:13:45.339Z,97.26
2022-11-29T05:18:07.525Z,97.15
2022-11-29T05:22:32.032Z,96.83
2022-11-29T05:27:11.001Z,97.06
2022-11-29T05:31:52.839Z,96.95
2022-11-29T05:36:42.055Z,96.99
2022-11-29T05:41:01.627Z,97.18
2022-11-29T05:45:19.298Z,96.93
2022-11-29T05:50:03.196Z,97.20
2022-11-29T05:54:19.849Z,97.01
2022-11-29T05:58:44.700Z,97.05
2022-11-29T06:03:19.743Z,97.24
2022-11-29T06:07:39.665Z,97.12
2022-11-29T06:12:14.866Z,97.18
2022-11-29T06:17:05.942Z,97.31
2022-11-29T06:21:39.120Z,97.18
2022-11-29T06:26:18.002Z,96.96
2022-11-29T06:30:53.573Z,96.94
2022-11-29T06:35:13.241Z,96.91
2022-11-29T06:39:25.067Z,96.88
2022-11-29T06:43:36.853Z,96.96
2022-11-29T06:48:28.095Z,96.95
2022-11-29T06:52:58.456Z,97.05
2022-11-29T06:57:12.997Z,96.96
2022-11-29T07:01:41.993Z,96.79
2022-11-29T07:05:53.868Z,96.87
2022-11-29T07:10:10.577Z,96.70
2022-11-29T07:14:25.497Z,96.89
2022-11-29T07:19:14.428Z,96.99
2022-11-29T07:23:43.721Z,96.92
2022-11-29T07:28:26.466Z,97.26
2022-11-29T07:32:43.641Z,96.77
2022-11-29T07:37:04.779Z,96.98
2022-11-29T07:41:32.223Z,96.86
2022-11-29T07:45:43.885Z,96.85
2022-11-29T07:49:55.434Z,96.97
2022-11-29T07:54:07.164Z,97.09
2022-11-29T07:58:19.059Z,96.72
2022-11-29T08:02:32.331Z,96.98
2022-11-29T08:06:43.959Z,96.77
2022-11-29T08:10:55.577Z,96.81
2022-11-29T08:15:08.738Z,96.73
2022-11-29T08:19:20.335Z,96.88
2022-11-29T08:23:31.903Z,96.96
2022-11-29T08:27:43.529Z,96.97
2022-11-29T08:31:55.331Z,96.97
2022-11-29T08:36:15.994Z,96.97
2022-11-29T08:40:27.618Z,97.29
2022-11-29T08:44:39.209Z,97.06
2022-11-29T08:48:50.746Z,97.17
2022-11-29T08:53:43.700Z,97.16
2022-11-29T08:58:01.866Z,97.14
2022-11-29T09:02:13.446Z,97.17
2022-11-29T09:06:26.500Z,97.07
2022-11-29T09:10:42.187Z,96.75
2022-11-29T09:14:53.755Z,96.91
2022-11-29T09:19:05.768Z,96.65
2022-11-29T09:23:17.322Z,96.72
2022-11-29T09:27:28.958Z,96.46
2022-11-29T09:31:40.593Z,96.43
2022-11-29T09:35:58.084Z,96.83
2022-11-29T09:40:18.175Z,96.72
2022-11-29T09:44:48.614Z,96.97
2022-11-29T09:49:09.354Z,96.75
2022-11-29T09:53:48.053Z,96.30
2022-11-29T09:58:01.527Z,96.65
2022-11-29T10:02:22.464Z,96.66
2022-11-29T10:06:40.791Z,96.61
2022-11-29T10:11:36.088Z,96.29
2022-11-29T10:15:53.247Z,96.35
2022-11-29T10:20:17.111Z,96.06
2022-11-29T10:24:29.839Z,95.90
2022-11-29T10:28:48.570Z,95.83
2022-11-29T10:33:00.674Z,96.17
2022-11-29T10:37:22.445Z,96.12
2022-11-29T10:41:35.751Z,95.98
2022-11-29T10:45:56.127Z,96.00
2022-11-29T10:50:13.308Z,95.65
2022-11-29T10:54:38.410Z,95.94
2022-11-29T10:58:56.389Z,95.86
2022-11-29T11:03:33.940Z,95.65
2022-11-29T11:07:47.419Z,94.74
2022-11-29T11:12:02.872Z,93.96
2022-11-29T11:16:24.268Z,93.99
2022-11-29T11:20:40.344Z,94.60
2022-11-29T11:25:01.128Z,94.29
2022-11-29T11:29:22.457Z,94.42
2022-11-29T11:33:42.364Z,94.29
2022-11-29T11:37:56.813Z,93.95
2022-11-29T11:42:33.628Z,94.10
2022-11-29T11:46:50.267Z,93.94
2022-11-29T11:51:03.418Z,93.29
2022-11-29T11:55:21.201Z,93.79
2022-11-29T11:59:33.948Z,94.02
2022-11-29T12:03:52.830Z,93.75
2022-11-29T12:08:08.124Z,93.06
2022-11-29T12:12:26.206Z,92.62
2022-11-29T12:16:39.202Z,92.15
2022-11-29T12:21:17.556Z,92.45
2022-11-29T12:25:35.979Z,92.10
2022-11-29T12:29:47.569Z,92.12
2022-11-29T12:34:10.230Z,92.44
2022-11-29T12:38:49.561Z,92.13
2022-11-29T12:43:23.040Z,91.81
2022-11-29T12:47:40.992Z,91.36
2022-11-29T12:52:03.955Z,91.68
2022-11-29T12:56:34.247Z,91.96
2022-11-29T13:00:52.466Z,91.29
2022-11-29T13:05:19.086Z,91.55
2022-11-29T13:10:14.967Z,91.82
2022-11-29T13:14:43.889Z,91.24
2022-11-29T13:19:03.149Z,90.82
2022-11-29T13:24:07.870Z,90.79
2022-11-29T13:28:39.573Z,90.83
2022-11-29T13:32:59.041Z,90.70
2022-11-29T13:37:53.561Z,90.79
2022-11-29T13:42:25.087Z,90.68
2022-11-29T13:47:08.562Z,90.58
2022-11-29T13:51:30.566Z,90.81
2022-11-29T13:55:59.810Z,91.10
2022-11-29T14:00:39.785Z,91.42
2022-11-29T14:04:52.370Z,91.50
2022-11-29T14:09:21.054Z,91.57
2022-11-29T14:13:49.967Z,91.54
2022-11-29T14:18:07.251Z,91.49
2022-11-29T14:22:22.155Z,91.23
2022-11-29T14:26:33.819Z,91.31
2022-11-29T14:30:51.047Z,91.48
2022-11-29T14:35:11.806Z,92.18
2022-11-29T14:39:33.166Z,92.44
2022-11-29T14:43:44.837Z,92.47
2022-11-29T14:47:57.402Z,92.34
2022-11-29T14:52:21.575Z,91.81
2022-11-29T14:56:35.031Z,91.86
2022-11-29T15:00:49.546Z,91.74
2022-11-29T15:05:16.744Z,91.95
2022-11-29T15:09:30.075Z,91.88
2022-11-29T15:13:55.038Z,91.68
2022-11-29T15:18:19.994Z,91.90
2022-11-29T15:22:46.780Z,91.78
2022-11-29T15:27:01.064Z,91.66
2022-11-29T15:31:16.214Z,91.94
2022-11-29T15:35:28.544Z,91.92
2022-11-29T15:39:40.251Z,92.26
2022-11-29T15:43:55.897Z,92.32
2022-11-29T15:48:24.096Z,92.26
2022-11-29T15:52:38.417Z,92.25
2022-11-29T15:57:00.642Z,92.11
2022-11-29T16:01:20.019Z,92.16
2022-11-29T16:05:35.104Z,92.86
2022-11-29T16:09:56.943Z,92.36
2022-11-29T16:14:11.420Z,92.49
2022-11-29T16:18:25.483Z,92.14
2022-11-29T16:22:37.092Z,92.42
2022-11-29T16:26:50.930Z,92.28
2022-11-29T16:31:04.779Z,92.61
2022-11-29T16:35:22.125Z,92.82
2022-11-29T16:39:36.983Z,92.76
2022-11-29T16:43:55.195Z,92.92
2022-11-29T16:48:21.917Z,92.84
2022-11-29T16:52:34.415Z,92.91
2022-11-29T16:56:45.988Z,92.91
2022-11-29T17:00:57.552Z,92.91
2022-11-29T17:05:09.128Z,93.14
2022-11-29T17:09:27.120Z,92.80
2022-11-29T17:13:38.837Z,93.07
2022-11-29T17:17:50.427Z,93.12
2022-11-29T17:22:02.110Z,92.99
2022-11-29T17:26:15.436Z,93.08
2022-11-29T17:30:28.870Z,93.19
2022-11-29T17:34:40.441Z,93.25
2022-11-29T17:38:52.194Z,93.27
2022-11-29T17:43:03.766Z,93.32
2022-11-29T17:47:15.353Z,93.26
2022-11-29T17:56:09.951Z,93.40
2022-11-29T18:00:21.556Z,93.63
2022-11-29T18:04:33.150Z,93.52
2022-11-29T18:08:47.710Z,93.55
2022-11-29T18:12:59.273Z,93.38
2022-11-29T18:17:10.945Z,93.58
2022-11-29T18:21:22.830Z,93.62
2022-11-29T18:25:39.121Z,93.81
2022-11-29T18:29:51.507Z,93.63
2022-11-29T18:34:06.983Z,93.56
2022-11-29T18:38:18.833Z,93.87
2022-11-29T18:42:30.432Z,93.64
2022-11-29T18:46:44.040Z,93.95
2022-11-29T18:50:55.606Z,94.09
2022-11-29T18:55:07.555Z,94.06
2022-11-29T18:59:19.169Z,93.83
2022-11-29T19:03:34.106Z,94.16
2022-11-29T19:07:45.733Z,93.90
2022-11-29T19:11:57.326Z,93.84
2022-11-29T19:16:13.407Z,93.84
2022-11-29T19:20:25.582Z,93.86
2022-11-29T19:24:37.069Z,93.81
2022-11-29T19:28:48.683Z,94.02
2022-11-29T19:33:00.246Z,94.13
2022-11-29T19:37:11.896Z,94.51
2022-11-29T19:41:26.190Z,93.95
2022-11-29T19:45:40.941Z,94.25
2022-11-29T19:49:52.885Z,94.18
2022-11-29T19:54:07.095Z,94.56
2022-11-29T19:58:20.820Z,94.33
2022-11-29T20:02:32.548Z,94.37
2022-11-29T20:06:44.527Z,94.56
2022-11-29T20:10:56.433Z,94.55
2022-11-29T20:15:08.328Z,94.40
2022-11-29T20:19:21.580Z,94.39
2022-11-29T20:23:33.658Z,94.37
2022-11-29T20:27:45.203Z,94.67
2022-11-29T20:31:56.848Z,94.54
2022-11-29T20:36:25.771Z,94.63
2022-11-29T20:40:50.967Z,94.75
2022-11-29T20:45:11.261Z,94.71
2022-11-29T20:49:23.006Z,94.54
2022-11-29T20:53:40.152Z,94.62
2022-11-29T20:57:51.723Z,94.81
2022-11-29T21:02:03.649Z,94.94
2022-11-29T21:06:15.370Z,94.53
2022-11-29T21:10:26.956Z,94.89
2022-11-29T21:14:38.844Z,94.54
2022-11-29T21:18:58.898Z,94.86
2022-11-29T21:23:27.046Z,94.57
2022-11-29T21:27:38.843Z,94.78
2022-11-29T21:31:53.826Z,94.85
2022-11-29T21:36:06.192Z,94.79
2022-11-29T21:40:17.813Z,94.61
2022-11-29T21:44:29.367Z,94.82
2022-11-29T21:48:42.432Z,94.93
2022-11-29T21:52:55.020Z,94.77
2022-11-29T21:57:06.652Z,94.87
2022-11-29T22:01:20.105Z,94.89
2022-11-29T22:05:31.724Z,95.01
2022-11-29T22:09:43.347Z,95.03
2022-11-29T22:14:13.617Z,95.07
2022-11-29T22:18:27.832Z,95.04
2022-11-29T22:22:39.433Z,95.09
2022-11-29T22:26:52.571Z,94.72
2022-11-29T22:31:12.294Z,94.72
2022-11-29T22:35:23.958Z,94.41
2022-11-29T22:39:35.524Z,94.45
2022-11-29T22:43:47.117Z,93.85
2022-11-29T22:47:58.717Z,93.52
2022-11-29T22:52:10.308Z,93.48
2022-11-29T22:56:27.746Z,93.01
2022-11-29T23:00:44.029Z,92.76
2022-11-29T23:04:55.760Z,92.76
2022-11-29T23:09:16.602Z,92.53
2022-11-29T23:13:28.440Z,92.80
2022-11-29T23:17:40.159Z,92.60
2022-11-29T23:21:51.975Z,92.42
2022-11-29T23:26:07.348Z,92.08
2022-11-29T23:30:18.886Z,91.77
2022-11-29T23:34:30.402Z,92.02
2022-11-29T23:38:42.267Z,91.99
2022-11-29T23:42:54.158Z,91.87
2022-11-29T23:47:05.626Z,91.96
2022-11-29T23:51:18.613Z,92.03
2022-11-29T23:55:30.165Z,91.99
2022-11-29T23:59:41.636Z,91.89
